^^
Saratoga-Weather Station Historical Data
Daily Summary for June 19, 2020 Units:  Both    English   Metric
Daily Weekly Monthly Yearly Custom
  High: Low: Average:
Temperature: 77.7 °F /  25.4 °C 56.1 °F /  13.4 °C 66.7 °F /  19.3 °C
Dew Point: 60.3 °F /  15.7 °C 48.2 °F /  9 °C 54 °F /  12.2 °C
Humidity: 78% 49% 64%
Wind Speed: 4mph /  6.4km/h - 0.5mph /  0.8km/h
Wind Gust: 8mph /  12.9km/h - -
Wind- - ESE
Pressure: 30.1 in /  1017.6 hPa 29.9 in /  1013.2 hPa -
Precipitation: 0 in /  0.0 mm    
Historical Graphs
 
 
Tabular Data for June 19, 2020
Time Temperature Dew Point Pressure Wind Wind Speed Wind Gust Humidity Rainfall Rate (Hourly) solar
00:01 62.4 °F /  16.9 °C 53.2 °F /  11.8 °C 30.1in /  1017.6hPa Calm     72% 0in /  0.0mm 0 W/m2
00:06 62.2 °F /  16.8 °C 52.7 °F /  11.5 °C 30.1in /  1017.6hPa East 0.9mph /  1.4km/h 1mph /  1.6km/h 71% 0in /  0.0mm 0 W/m2
00:11 62.4 °F /  16.9 °C 52.9 °F /  11.6 °C 30.1in /  1017.6hPa Calm   2mph /  3.2km/h 71% 0in /  0.0mm 0 W/m2
00:16 62.8 °F /  17.1 °C 53.2 °F /  11.8 °C 30.1in /  1017.6hPa Calm   1mph /  1.6km/h 71% 0in /  0.0mm 0 W/m2
00:21 62.8 °F /  17.1 °C 52.9 °F /  11.6 °C 30.1in /  1017.6hPa Calm   1mph /  1.6km/h 70% 0in /  0.0mm 0 W/m2
00:26 62.8 °F /  17.1 °C 52.9 °F /  11.6 °C 30.1in /  1017.6hPa SE 0.9mph /  1.4km/h 1mph /  1.6km/h 70% 0in /  0.0mm 0 W/m2
00:31 62.8 °F /  17.1 °C 52.9 °F /  11.6 °C 30.1in /  1017.6hPa Calm   1mph /  1.6km/h 70% 0in /  0.0mm 0 W/m2
00:36 62.8 °F /  17.1 °C 52.9 °F /  11.6 °C 30.1in /  1017.6hPa Calm   2mph /  3.2km/h 70% 0in /  0.0mm 0 W/m2
00:41 62.6 °F /  17 °C 52.7 °F /  11.5 °C 30.1in /  1017.6hPa Calm   1mph /  1.6km/h 70% 0in /  0.0mm 0 W/m2
00:46 62.6 °F /  17 °C 52.7 °F /  11.5 °C 30.1in /  1017.6hPa Calm     70% 0in /  0.0mm 0 W/m2
00:51 62.4 °F /  16.9 °C 52.5 °F /  11.4 °C 30.1in /  1017.6hPa SE 0.9mph /  1.4km/h 1mph /  1.6km/h 70% 0in /  0.0mm 0 W/m2
00:56 62.2 °F /  16.8 °C 52.3 °F /  11.3 °C 30.1in /  1017.6hPa SE 0.9mph /  1.4km/h 2mph /  3.2km/h 70% 0in /  0.0mm 0 W/m2
01:01 62.2 °F /  16.8 °C 52.3 °F /  11.3 °C 30.1in /  1017.6hPa Calm   2mph /  3.2km/h 70% 0in /  0.0mm 0 W/m2
01:06 62.2 °F /  16.8 °C 52.3 °F /  11.3 °C 30.1in /  1017.6hPa Calm   1mph /  1.6km/h 70% 0in /  0.0mm 0 W/m2
01:11 62.2 °F /  16.8 °C 52 °F /  11.1 °C 30.1in /  1017.6hPa Calm   2mph /  3.2km/h 69% 0in /  0.0mm 0 W/m2
01:16 62.1 °F /  16.7 °C 51.8 °F /  11 °C 30.1in /  1017.6hPa Calm   1mph /  1.6km/h 69% 0in /  0.0mm 0 W/m2
01:21 62.1 °F /  16.7 °C 52.2 °F /  11.2 °C 30.1in /  1017.6hPa Calm     70% 0in /  0.0mm 0 W/m2
01:26 61.9 °F /  16.6 °C 52 °F /  11.1 °C 30.1in /  1017.6hPa Calm     70% 0in /  0.0mm 0 W/m2
01:31 61.5 °F /  16.4 °C 51.6 °F /  10.9 °C 30.1in /  1017.6hPa Calm     70% 0in /  0.0mm 0 W/m2
01:36 61.3 °F /  16.3 °C 51.8 °F /  11 °C 30.1in /  1017.6hPa Calm   2mph /  3.2km/h 71% 0in /  0.0mm 0 W/m2
01:41 61.2 °F /  16.2 °C 51.6 °F /  10.9 °C 30.1in /  1017.6hPa Calm     71% 0in /  0.0mm 0 W/m2
01:46 61 °F /  16.1 °C 52 °F /  11.1 °C 30in /  1017.3hPa Calm   1mph /  1.6km/h 72% 0in /  0.0mm 0 W/m2
01:51 60.8 °F /  16 °C 51.8 °F /  11 °C 30in /  1017.3hPa Calm     72% 0in /  0.0mm 0 W/m2
01:56 60.6 °F /  15.9 °C 51.6 °F /  10.9 °C 30in /  1017.3hPa Calm   1mph /  1.6km/h 72% 0in /  0.0mm 0 W/m2
02:01 60.4 °F /  15.8 °C 51.4 °F /  10.8 °C 30in /  1017.3hPa Calm     72% 0in /  0.0mm 0 W/m2
02:06 60.4 °F /  15.8 °C 51.4 °F /  10.8 °C 30in /  1017.3hPa Calm     72% 0in /  0.0mm 0 W/m2
02:11 60.4 °F /  15.8 °C 51.4 °F /  10.8 °C 30in /  1017.3hPa ENE 0.9mph /  1.4km/h 1mph /  1.6km/h 72% 0in /  0.0mm 0 W/m2
02:16 60.4 °F /  15.8 °C 51.4 °F /  10.8 °C 30in /  1017.3hPa Calm   1mph /  1.6km/h 72% 0in /  0.0mm 0 W/m2
02:21 60.6 °F /  15.9 °C 51.1 °F /  10.6 °C 30in /  1017.3hPa Calm   1mph /  1.6km/h 71% 0in /  0.0mm 0 W/m2
02:26 61 °F /  16.1 °C 51.4 °F /  10.8 °C 30in /  1016.9hPa Calm   2mph /  3.2km/h 71% 0in /  0.0mm 0 W/m2
02:31 61.3 °F /  16.3 °C 51.4 °F /  10.8 °C 30in /  1017.3hPa Calm     70% 0in /  0.0mm 0 W/m2
02:36 61.3 °F /  16.3 °C 51.4 °F /  10.8 °C 30in /  1017.3hPa Calm   1mph /  1.6km/h 70% 0in /  0.0mm 0 W/m2
02:41 61.2 °F /  16.2 °C 51.3 °F /  10.7 °C 30in /  1016.9hPa Calm   1mph /  1.6km/h 70% 0in /  0.0mm 0 W/m2
02:46 61.2 °F /  16.2 °C 51.3 °F /  10.7 °C 30in /  1016.9hPa Calm     70% 0in /  0.0mm 0 W/m2
02:51 61 °F /  16.1 °C 51.1 °F /  10.6 °C 30in /  1016.9hPa Calm     70% 0in /  0.0mm 0 W/m2
02:56 60.8 °F /  16 °C 51.3 °F /  10.7 °C 30in /  1016.9hPa Calm     71% 0in /  0.0mm 0 W/m2
03:01 60.6 °F /  15.9 °C 51.1 °F /  10.6 °C 30in /  1016.9hPa Calm     71% 0in /  0.0mm 0 W/m2
03:06 60.3 °F /  15.7 °C 51.3 °F /  10.7 °C 30in /  1016.9hPa Calm     72% 0in /  0.0mm 0 W/m2
03:11 60.1 °F /  15.6 °C 51.1 °F /  10.6 °C 30in /  1016.9hPa Calm   1mph /  1.6km/h 72% 0in /  0.0mm 0 W/m2
03:16 60.1 °F /  15.6 °C 51.4 °F /  10.8 °C 30in /  1016.9hPa Calm     73% 0in /  0.0mm 0 W/m2
03:21 59.7 °F /  15.4 °C 51.1 °F /  10.6 °C 30in /  1016.9hPa Calm   1mph /  1.6km/h 73% 0in /  0.0mm 0 W/m2
03:26 59.7 °F /  15.4 °C 51.1 °F /  10.6 °C 30in /  1016.9hPa Calm     73% 0in /  0.0mm 0 W/m2
03:31 59.5 °F /  15.3 °C 50.9 °F /  10.5 °C 30in /  1016.9hPa Calm   1mph /  1.6km/h 73% 0in /  0.0mm 0 W/m2
03:37 59.4 °F /  15.2 °C 51.1 °F /  10.6 °C 30in /  1016.9hPa Calm     74% 0in /  0.0mm 0 W/m2
03:42 59.4 °F /  15.2 °C 51.1 °F /  10.6 °C 30in /  1016.9hPa Calm   2mph /  3.2km/h 74% 0in /  0.0mm 0 W/m2
03:47 59.4 °F /  15.2 °C 51.1 °F /  10.6 °C 30in /  1016.6hPa SE 0.9mph /  1.4km/h 1mph /  1.6km/h 74% 0in /  0.0mm 0 W/m2
03:52 59.4 °F /  15.2 °C 51.1 °F /  10.6 °C 30in /  1016.6hPa Calm   1mph /  1.6km/h 74% 0in /  0.0mm 0 W/m2
03:57 59.4 °F /  15.2 °C 51.1 °F /  10.6 °C 30in /  1016.6hPa Calm   1mph /  1.6km/h 74% 0in /  0.0mm 0 W/m2
04:02 59.2 °F /  15.1 °C 50.9 °F /  10.5 °C 30in /  1016.6hPa Calm   1mph /  1.6km/h 74% 0in /  0.0mm 0 W/m2
04:07 59.2 °F /  15.1 °C 51.3 °F /  10.7 °C 30in /  1016.6hPa Calm   2mph /  3.2km/h 75% 0in /  0.0mm 0 W/m2
04:12 59 °F /  15 °C 51.1 °F /  10.6 °C 30in /  1016.6hPa SE 0.9mph /  1.4km/h 1mph /  1.6km/h 75% 0in /  0.0mm 0 W/m2
04:17 58.8 °F /  14.9 °C 50.9 °F /  10.5 °C 30in /  1016.6hPa Calm   2mph /  3.2km/h 75% 0in /  0.0mm 0 W/m2
04:22 58.8 °F /  14.9 °C 50.9 °F /  10.5 °C 30in /  1016.3hPa Calm     75% 0in /  0.0mm 0 W/m2
04:27 58.6 °F /  14.8 °C 50.7 °F /  10.4 °C 30in /  1016.3hPa Calm     75% 0in /  0.0mm 0 W/m2
04:32 58.6 °F /  14.8 °C 50.7 °F /  10.4 °C 30in /  1016.3hPa Calm     75% 0in /  0.0mm 0 W/m2
04:37 58.5 °F /  14.7 °C 50.9 °F /  10.5 °C 30in /  1016.3hPa Calm     76% 0in /  0.0mm 0 W/m2
04:42 58.5 °F /  14.7 °C 50.9 °F /  10.5 °C 30in /  1016.3hPa SE 0.9mph /  1.4km/h 1mph /  1.6km/h 76% 0in /  0.0mm 0 W/m2
04:47 58.5 °F /  14.7 °C 50.9 °F /  10.5 °C 30in /  1016.3hPa Calm     76% 0in /  0.0mm 0 W/m2
04:52 58.3 °F /  14.6 °C 50.7 °F /  10.4 °C 30in /  1016.3hPa Calm     76% 0in /  0.0mm 0 W/m2
04:57 58.3 °F /  14.6 °C 50.7 °F /  10.4 °C 30in /  1016.3hPa Calm     76% 0in /  0.0mm 0 W/m2
05:02 58.1 °F /  14.5 °C 50.5 °F /  10.3 °C 30in /  1016.3hPa Calm     76% 0in /  0.0mm 0 W/m2
05:07 57.9 °F /  14.4 °C 50.7 °F /  10.4 °C 30in /  1016.3hPa Calm   1mph /  1.6km/h 77% 0in /  0.0mm 0 W/m2
05:12 57.9 °F /  14.4 °C 50.7 °F /  10.4 °C 30in /  1016.3hPa Calm     77% 0in /  0.0mm 0 W/m2
05:17 57.7 °F /  14.3 °C 50.5 °F /  10.3 °C 30in /  1016.3hPa Calm   1mph /  1.6km/h 77% 0in /  0.0mm 0 W/m2
05:22 57.6 °F /  14.2 °C 50.4 °F /  10.2 °C 30in /  1016.3hPa Calm     77% 0in /  0.0mm 0 W/m2
05:27 57.6 °F /  14.2 °C 50.4 °F /  10.2 °C 30in /  1016.3hPa Calm     77% 0in /  0.0mm 0 W/m2
05:32 57.6 °F /  14.2 °C 50.4 °F /  10.2 °C 30in /  1016.3hPa Calm   3mph /  4.8km/h 77% 0in /  0.0mm 0 W/m2
05:37 57.6 °F /  14.2 °C 50.4 °F /  10.2 °C 30in /  1016.3hPa Calm     77% 0in /  0.0mm 0 W/m2
05:42 57.7 °F /  14.3 °C 50.2 °F /  10.1 °C 30in /  1016.3hPa Calm   1mph /  1.6km/h 76% 0in /  0.0mm 0 W/m2
05:47 57.7 °F /  14.3 °C 50.2 °F /  10.1 °C 30in /  1016.3hPa Calm     76% 0in /  0.0mm 0 W/m2
05:52 57.7 °F /  14.3 °C 50.2 °F /  10.1 °C 30in /  1016.3hPa Calm     76% 0in /  0.0mm 0 W/m2
05:57 57.7 °F /  14.3 °C 50.2 °F /  10.1 °C 30in /  1016.3hPa Calm     76% 0in /  0.0mm 0 W/m2
06:02 57.6 °F /  14.2 °C 50 °F /  10 °C 30in /  1016.3hPa Calm     76% 0in /  0.0mm 0 W/m2
06:07 57.6 °F /  14.2 °C 50 °F /  10 °C 30in /  1016.3hPa Calm     76% 0in /  0.0mm 0 W/m2
06:12 57.4 °F /  14.1 °C 49.8 °F /  9.9 °C 30in /  1016.3hPa Calm     76% 0in /  0.0mm 0 W/m2
06:17 57.2 °F /  14 °C 50 °F /  10 °C 30in /  1016.3hPa Calm     77% 0in /  0.0mm 0 W/m2
06:22 57 °F /  13.9 °C 49.8 °F /  9.9 °C 30in /  1016.3hPa Calm     77% 0in /  0.0mm 0 W/m2
06:27 56.8 °F /  13.8 °C 49.6 °F /  9.8 °C 30in /  1016.3hPa Calm     77% 0in /  0.0mm 0 W/m2
06:32 56.8 °F /  13.8 °C 49.6 °F /  9.8 °C 30in /  1016.3hPa Calm     77% 0in /  0.0mm 0 W/m2
06:37 56.7 °F /  13.7 °C 49.8 °F /  9.9 °C 30in /  1016.6hPa Calm     78% 0in /  0.0mm 0 W/m2
06:42 56.7 °F /  13.7 °C 49.8 °F /  9.9 °C 30in /  1016.6hPa Calm     78% 0in /  0.0mm 0 W/m2
06:47 56.7 °F /  13.7 °C 49.8 °F /  9.9 °C 30in /  1016.6hPa Calm     78% 0in /  0.0mm 0 W/m2
06:52 56.5 °F /  13.6 °C 49.6 °F /  9.8 °C 30in /  1016.6hPa Calm     78% 0in /  0.0mm 0 W/m2
06:57 56.3 °F /  13.5 °C 49.5 °F /  9.7 °C 30in /  1016.6hPa Calm     78% 0in /  0.0mm 0 W/m2
07:02 56.1 °F /  13.4 °C 49.3 °F /  9.6 °C 30in /  1016.6hPa Calm     78% 0in /  0.0mm 0 W/m2
07:07 56.1 °F /  13.4 °C 49.3 °F /  9.6 °C 30in /  1016.6hPa Calm     78% 0in /  0.0mm 0 W/m2
07:12 56.1 °F /  13.4 °C 49.3 °F /  9.6 °C 30in /  1016.6hPa Calm     78% 0in /  0.0mm 0 W/m2
07:17 56.1 °F /  13.4 °C 49.3 °F /  9.6 °C 30in /  1016.6hPa Calm     78% 0in /  0.0mm 0 W/m2
07:22 56.1 °F /  13.4 °C 49.3 °F /  9.6 °C 30in /  1016.6hPa Calm     78% 0in /  0.0mm 5 W/m2
07:28 56.3 °F /  13.5 °C 49.5 °F /  9.7 °C 30in /  1016.9hPa Calm     78% 0in /  0.0mm 7 W/m2
07:33 56.5 °F /  13.6 °C 49.6 °F /  9.8 °C 30in /  1016.9hPa Calm   1mph /  1.6km/h 78% 0in /  0.0mm 11 W/m2
07:38 56.7 °F /  13.7 °C 49.5 °F /  9.7 °C 30in /  1016.9hPa Calm   1mph /  1.6km/h 77% 0in /  0.0mm 12 W/m2
07:43 56.8 °F /  13.8 °C 49.6 °F /  9.8 °C 30in /  1016.9hPa Calm     77% 0in /  0.0mm 18 W/m2
07:48 57 °F /  13.9 °C 49.8 °F /  9.9 °C 30in /  1016.9hPa Calm   1mph /  1.6km/h 77% 0in /  0.0mm 21 W/m2
07:53 57 °F /  13.9 °C 49.5 °F /  9.7 °C 30in /  1016.9hPa Calm     76% 0in /  0.0mm 28 W/m2
07:58 57.2 °F /  14 °C 49.6 °F /  9.8 °C 30in /  1016.9hPa SE 0.9mph /  1.4km/h 1mph /  1.6km/h 76% 0in /  0.0mm 32 W/m2
08:03 57.4 °F /  14.1 °C 49.8 °F /  9.9 °C 30in /  1016.9hPa ENE 0.9mph /  1.4km/h 2mph /  3.2km/h 76% 0in /  0.0mm 33 W/m2
08:08 57.6 °F /  14.2 °C 49.6 °F /  9.8 °C 30in /  1016.9hPa East 2mph /  3.2km/h 2mph /  3.2km/h 75% 0in /  0.0mm 32 W/m2
08:13 57.9 °F /  14.4 °C 49.6 °F /  9.8 °C 30in /  1016.9hPa East 2mph /  3.2km/h 2mph /  3.2km/h 74% 0in /  0.0mm 28 W/m2
08:18 58.1 °F /  14.5 °C 49.5 °F /  9.7 °C 30in /  1016.9hPa Calm   3mph /  4.8km/h 73% 0in /  0.0mm 26 W/m2
08:23 58.3 °F /  14.6 °C 49.3 °F /  9.6 °C 30in /  1016.9hPa Calm   1mph /  1.6km/h 72% 0in /  0.0mm 26 W/m2
08:28 58.5 °F /  14.7 °C 49.5 °F /  9.7 °C 30in /  1016.9hPa NE 0.9mph /  1.4km/h 1mph /  1.6km/h 72% 0in /  0.0mm 30 W/m2
08:33 58.5 °F /  14.7 °C 49.1 °F /  9.5 °C 30in /  1016.9hPa Calm   2mph /  3.2km/h 71% 0in /  0.0mm 74 W/m2
08:38 58.6 °F /  14.8 °C 48.9 °F /  9.4 °C 30in /  1016.9hPa Calm   1mph /  1.6km/h 70% 0in /  0.0mm 44 W/m2
08:43 58.6 °F /  14.8 °C 48.9 °F /  9.4 °C 30in /  1016.9hPa Calm   2mph /  3.2km/h 70% 0in /  0.0mm 40 W/m2
08:48 58.8 °F /  14.9 °C 48.2 °F /  9 °C 30in /  1016.9hPa NE 0.9mph /  1.4km/h 3mph /  4.8km/h 68% 0in /  0.0mm 42 W/m2
08:53 59.4 °F /  15.2 °C 48.4 °F /  9.1 °C 30in /  1016.9hPa Calm   3mph /  4.8km/h 67% 0in /  0.0mm 46 W/m2
08:58 59.7 °F /  15.4 °C 48.7 °F /  9.3 °C 30in /  1017.3hPa South 0.9mph /  1.4km/h 2mph /  3.2km/h 67% 0in /  0.0mm 51 W/m2
09:03 60.1 °F /  15.6 °C 48.7 °F /  9.3 °C 30in /  1017.3hPa Calm   3mph /  4.8km/h 66% 0in /  0.0mm 125 W/m2
09:08 60.3 °F /  15.7 °C 48.9 °F /  9.4 °C 30in /  1017.3hPa Calm   3mph /  4.8km/h 66% 0in /  0.0mm 144 W/m2
09:13 60.4 °F /  15.8 °C 48.6 °F /  9.2 °C 30in /  1017.3hPa ESE 0.9mph /  1.4km/h 2mph /  3.2km/h 65% 0in /  0.0mm 98 W/m2
09:18 61 °F /  16.1 °C 48.7 °F /  9.3 °C 30in /  1017.3hPa NE 0.9mph /  1.4km/h 2mph /  3.2km/h 64% 0in /  0.0mm 56 W/m2
09:23 61.3 °F /  16.3 °C 49.1 °F /  9.5 °C 30in /  1017.3hPa East 2mph /  3.2km/h 3mph /  4.8km/h 64% 0in /  0.0mm 62 W/m2
09:28 61.9 °F /  16.6 °C 49.1 °F /  9.5 °C 30in /  1017.3hPa ENE 0.9mph /  1.4km/h 3mph /  4.8km/h 63% 0in /  0.0mm 69 W/m2
09:33 62.2 °F /  16.8 °C 49.1 °F /  9.5 °C 30in /  1017.3hPa East 2mph /  3.2km/h 3mph /  4.8km/h 62% 0in /  0.0mm 72 W/m2
09:38 62.4 °F /  16.9 °C 48.7 °F /  9.3 °C 30in /  1017.3hPa NE 4mph /  6.4km/h 4mph /  6.4km/h 61% 0in /  0.0mm 76 W/m2
09:43 62.8 °F /  17.1 °C 49.1 °F /  9.5 °C 30in /  1017.3hPa SE 0.9mph /  1.4km/h 3mph /  4.8km/h 61% 0in /  0.0mm 72 W/m2
09:48 63.1 °F /  17.3 °C 49.5 °F /  9.7 °C 30in /  1017.3hPa Calm   1mph /  1.6km/h 61% 0in /  0.0mm 72 W/m2
09:53 63.3 °F /  17.4 °C 48.7 °F /  9.3 °C 30in /  1017.3hPa NNE 0.9mph /  1.4km/h 4mph /  6.4km/h 59% 0in /  0.0mm 70 W/m2
09:58 63.3 °F /  17.4 °C 49.3 °F /  9.6 °C 30in /  1017.3hPa East 2.9mph /  4.7km/h 4mph /  6.4km/h 60% 0in /  0.0mm 70 W/m2
10:03 63.7 °F /  17.6 °C 49.1 °F /  9.5 °C 30in /  1017.3hPa East 2mph /  3.2km/h 5mph /  8km/h 59% 0in /  0.0mm 70 W/m2
10:08 63.9 °F /  17.7 °C 49.3 °F /  9.6 °C 30in /  1017.3hPa NE 0.9mph /  1.4km/h 5mph /  8km/h 59% 0in /  0.0mm 69 W/m2
10:13 64 °F /  17.8 °C 49.5 °F /  9.7 °C 30in /  1017.3hPa NW 2mph /  3.2km/h 5mph /  8km/h 59% 0in /  0.0mm 70 W/m2
10:18 64.2 °F /  17.9 °C 49.6 °F /  9.8 °C 30in /  1017.3hPa NNW 0.9mph /  1.4km/h 2mph /  3.2km/h 59% 0in /  0.0mm 76 W/m2
10:23 64.8 °F /  18.2 °C 50.2 °F /  10.1 °C 30in /  1017.3hPa ENE 0.9mph /  1.4km/h 5mph /  8km/h 59% 0in /  0.0mm 77 W/m2
10:28 65.1 °F /  18.4 °C 50 °F /  10 °C 30in /  1017.3hPa East 0.9mph /  1.4km/h 4mph /  6.4km/h 58% 0in /  0.0mm 79 W/m2
10:33 65.7 °F /  18.7 °C 50 °F /  10 °C 30in /  1017.3hPa ENE 0.9mph /  1.4km/h 3mph /  4.8km/h 57% 0in /  0.0mm 81 W/m2
10:38 65.8 °F /  18.8 °C 50.7 °F /  10.4 °C 30in /  1017.3hPa Calm   2mph /  3.2km/h 58% 0in /  0.0mm 83 W/m2
10:43 66 °F /  18.9 °C 50.4 °F /  10.2 °C 30in /  1017.3hPa ESE 2.9mph /  4.7km/h 4mph /  6.4km/h 57% 0in /  0.0mm 84 W/m2
10:48 66.4 °F /  19.1 °C 50.7 °F /  10.4 °C 30in /  1017.3hPa East 2mph /  3.2km/h 7mph /  11.3km/h 57% 0in /  0.0mm 88 W/m2
10:54 66.7 °F /  19.3 °C 50.5 °F /  10.3 °C 30in /  1017.3hPa ENE 2.9mph /  4.7km/h 4mph /  6.4km/h 56% 0in /  0.0mm 88 W/m2
10:59 66.9 °F /  19.4 °C 50.2 °F /  10.1 °C 30in /  1017.3hPa ENE 2.9mph /  4.7km/h 7mph /  11.3km/h 55% 0in /  0.0mm 88 W/m2
11:04 66.9 °F /  19.4 °C 50.2 °F /  10.1 °C 30in /  1017.3hPa NE 0.9mph /  1.4km/h 3mph /  4.8km/h 55% 0in /  0.0mm 90 W/m2
11:09 66.9 °F /  19.4 °C 50.7 °F /  10.4 °C 30in /  1017.3hPa SSE 0.9mph /  1.4km/h 6mph /  9.7km/h 56% 0in /  0.0mm 91 W/m2
11:14 67.1 °F /  19.5 °C 50.9 °F /  10.5 °C 30in /  1017.3hPa NE 2.9mph /  4.7km/h 4mph /  6.4km/h 56% 0in /  0.0mm 91 W/m2
11:19 67.3 °F /  19.6 °C 51.1 °F /  10.6 °C 30in /  1017.3hPa ESE 2mph /  3.2km/h 3mph /  4.8km/h 56% 0in /  0.0mm 93 W/m2
11:24 67.5 °F /  19.7 °C 51.3 °F /  10.7 °C 30in /  1017.3hPa ENE 2mph /  3.2km/h 2mph /  3.2km/h 56% 0in /  0.0mm 98 W/m2
11:29 67.8 °F /  19.9 °C 51.1 °F /  10.6 °C 30in /  1017.3hPa NE 2.9mph /  4.7km/h 5mph /  8km/h 55% 0in /  0.0mm 104 W/m2
11:34 67.8 °F /  19.9 °C 51.6 °F /  10.9 °C 30in /  1017.3hPa East 0.9mph /  1.4km/h 4mph /  6.4km/h 56% 0in /  0.0mm 105 W/m2
11:39 68.4 °F /  20.2 °C 51.6 °F /  10.9 °C 30in /  1016.9hPa NNE 0.9mph /  1.4km/h 3mph /  4.8km/h 55% 0in /  0.0mm 153 W/m2
11:44 68.7 °F /  20.4 °C 52 °F /  11.1 °C 30in /  1016.9hPa SE 0.9mph /  1.4km/h 4mph /  6.4km/h 55% 0in /  0.0mm 461 W/m2
11:49 69.3 °F /  20.7 °C 52 °F /  11.1 °C 30in /  1016.9hPa North 0.9mph /  1.4km/h 5mph /  8km/h 54% 0in /  0.0mm 501 W/m2
11:54 69.4 °F /  20.8 °C 52.2 °F /  11.2 °C 30in /  1016.9hPa Calm   3mph /  4.8km/h 54% 0in /  0.0mm 512 W/m2
11:59 69.6 °F /  20.9 °C 52.2 °F /  11.2 °C 30in /  1016.9hPa East 0.9mph /  1.4km/h 5mph /  8km/h 54% 0in /  0.0mm 526 W/m2
12:04 70.2 °F /  21.2 °C 52.7 °F /  11.5 °C 30in /  1016.9hPa ENE 2.9mph /  4.7km/h 8mph /  12.9km/h 54% 0in /  0.0mm 550 W/m2
12:09 70.7 °F /  21.5 °C 53.2 °F /  11.8 °C 30in /  1016.9hPa SE 0.9mph /  1.4km/h 2mph /  3.2km/h 54% 0in /  0.0mm 559 W/m2
12:14 71.6 °F /  22 °C 53.6 °F /  12 °C 30in /  1016.9hPa ENE 2.9mph /  4.7km/h 8mph /  12.9km/h 53% 0in /  0.0mm 564 W/m2
12:19 72.3 °F /  22.4 °C 53.2 °F /  11.8 °C 30in /  1016.9hPa ESE 0.9mph /  1.4km/h 4mph /  6.4km/h 51% 0in /  0.0mm 554 W/m2
12:24 72.9 °F /  22.7 °C 53.6 °F /  12 °C 30in /  1016.9hPa NW 0.9mph /  1.4km/h 4mph /  6.4km/h 51% 0in /  0.0mm 531 W/m2
12:29 72.9 °F /  22.7 °C 53.6 °F /  12 °C 30in /  1016.6hPa ESE 2.9mph /  4.7km/h 4mph /  6.4km/h 51% 0in /  0.0mm 534 W/m2
12:34 73.2 °F /  22.9 °C 54 °F /  12.2 °C 30in /  1016.6hPa ENE 2mph /  3.2km/h 3mph /  4.8km/h 51% 0in /  0.0mm 557 W/m2
12:39 73.2 °F /  22.9 °C 54 °F /  12.2 °C 30in /  1016.6hPa North 4mph /  6.4km/h 5mph /  8km/h 51% 0in /  0.0mm 580 W/m2
12:44 73.2 °F /  22.9 °C 54 °F /  12.2 °C 30in /  1016.6hPa ENE 0.9mph /  1.4km/h 5mph /  8km/h 51% 0in /  0.0mm 596 W/m2
12:49 73.6 °F /  23.1 °C 53.8 °F /  12.1 °C 30in /  1016.6hPa NNW 0.9mph /  1.4km/h 3mph /  4.8km/h 50% 0in /  0.0mm 606 W/m2
12:54 73.8 °F /  23.2 °C 54.5 °F /  12.5 °C 30in /  1016.6hPa Calm   5mph /  8km/h 51% 0in /  0.0mm 615 W/m2
12:59 73.9 °F /  23.3 °C 54.1 °F /  12.3 °C 30in /  1016.6hPa North 2.9mph /  4.7km/h 3mph /  4.8km/h 50% 0in /  0.0mm 541 W/m2
13:04 73.9 °F /  23.3 °C 54.7 °F /  12.6 °C 30in /  1016.6hPa East 0.9mph /  1.4km/h 3mph /  4.8km/h 51% 0in /  0.0mm 540 W/m2
13:09 74.3 °F /  23.5 °C 54.5 °F /  12.5 °C 30in /  1016.3hPa NE 2mph /  3.2km/h 4mph /  6.4km/h 50% 0in /  0.0mm 533 W/m2
13:14 74.7 °F /  23.7 °C 54.9 °F /  12.7 °C 30in /  1016.3hPa Calm   3mph /  4.8km/h 50% 0in /  0.0mm 526 W/m2
13:19 75 °F /  23.9 °C 55 °F /  12.8 °C 30in /  1016.3hPa North 0.9mph /  1.4km/h 3mph /  4.8km/h 50% 0in /  0.0mm 527 W/m2
13:24 74.8 °F /  23.8 °C 55.6 °F /  13.1 °C 30in /  1016.3hPa NNE 0.9mph /  1.4km/h 1mph /  1.6km/h 51% 0in /  0.0mm 596 W/m2
13:29 75.2 °F /  24 °C 55.2 °F /  12.9 °C 30in /  1016.3hPa North 0.9mph /  1.4km/h 3mph /  4.8km/h 50% 0in /  0.0mm 559 W/m2
13:34 75.4 °F /  24.1 °C 55.4 °F /  13 °C 30in /  1016.3hPa ESE 2mph /  3.2km/h 2mph /  3.2km/h 50% 0in /  0.0mm 287 W/m2
13:39 75.6 °F /  24.2 °C 56.1 °F /  13.4 °C 30in /  1016.3hPa Calm   3mph /  4.8km/h 51% 0in /  0.0mm 332 W/m2
13:44 75.6 °F /  24.2 °C 55.6 °F /  13.1 °C 30in /  1016.3hPa Calm   2mph /  3.2km/h 50% 0in /  0.0mm 265 W/m2
13:49 75.7 °F /  24.3 °C 55.8 °F /  13.2 °C 30in /  1016.3hPa ESE 0.9mph /  1.4km/h 3mph /  4.8km/h 50% 0in /  0.0mm 348 W/m2
13:54 75.7 °F /  24.3 °C 55.8 °F /  13.2 °C 30in /  1016.3hPa Calm   2mph /  3.2km/h 50% 0in /  0.0mm 413 W/m2
13:59 76.1 °F /  24.5 °C 56.7 °F /  13.7 °C 30in /  1016.3hPa ENE 2.9mph /  4.7km/h 4mph /  6.4km/h 51% 0in /  0.0mm 322 W/m2
14:04 76.5 °F /  24.7 °C 56.5 °F /  13.6 °C 30in /  1016.3hPa ESE 2mph /  3.2km/h 2mph /  3.2km/h 50% 0in /  0.0mm 287 W/m2
14:09 76.5 °F /  24.7 °C 56.5 °F /  13.6 °C 30in /  1015.9hPa East 0.9mph /  1.4km/h 2mph /  3.2km/h 50% 0in /  0.0mm 274 W/m2
14:14 76.5 °F /  24.7 °C 56.5 °F /  13.6 °C 30in /  1015.9hPa Calm   1mph /  1.6km/h 50% 0in /  0.0mm 276 W/m2
14:19 76.6 °F /  24.8 °C 56.1 °F /  13.4 °C 30in /  1015.9hPa SE 0.9mph /  1.4km/h 3mph /  4.8km/h 49% 0in /  0.0mm 323 W/m2
14:24 76.6 °F /  24.8 °C 56.1 °F /  13.4 °C 30in /  1015.9hPa NE 0.9mph /  1.4km/h 3mph /  4.8km/h 49% 0in /  0.0mm 339 W/m2
14:29 76.8 °F /  24.9 °C 56.3 °F /  13.5 °C 30in /  1015.9hPa SSE 2mph /  3.2km/h 3mph /  4.8km/h 49% 0in /  0.0mm 274 W/m2
14:34 76.8 °F /  24.9 °C 56.3 °F /  13.5 °C 30in /  1015.6hPa East 0.9mph /  1.4km/h 2mph /  3.2km/h 49% 0in /  0.0mm 214 W/m2
14:39 76.8 °F /  24.9 °C 56.8 °F /  13.8 °C 30in /  1015.6hPa Calm   3mph /  4.8km/h 50% 0in /  0.0mm 223 W/m2
14:44 76.8 °F /  24.9 °C 56.3 °F /  13.5 °C 30in /  1015.6hPa East 0.9mph /  1.4km/h 2mph /  3.2km/h 49% 0in /  0.0mm 209 W/m2
14:49 76.8 °F /  24.9 °C 56.3 °F /  13.5 °C 30in /  1015.6hPa Calm   2mph /  3.2km/h 49% 0in /  0.0mm 192 W/m2
14:54 76.6 °F /  24.8 °C 56.1 °F /  13.4 °C 30in /  1015.2hPa Calm   2mph /  3.2km/h 49% 0in /  0.0mm 197 W/m2
14:59 76.8 °F /  24.9 °C 56.8 °F /  13.8 °C 30in /  1015.2hPa NE 2mph /  3.2km/h 2mph /  3.2km/h 50% 0in /  0.0mm 262 W/m2
15:04 76.8 °F /  24.9 °C 56.8 °F /  13.8 °C 30in /  1015.2hPa ESE 0.9mph /  1.4km/h 2mph /  3.2km/h 50% 0in /  0.0mm 232 W/m2
15:09 77.2 °F /  25.1 °C 56.5 °F /  13.6 °C 30in /  1015.2hPa ENE 2mph /  3.2km/h 2mph /  3.2km/h 49% 0in /  0.0mm 199 W/m2
15:14 77.4 °F /  25.2 °C 56.7 °F /  13.7 °C 30in /  1015.2hPa East 2mph /  3.2km/h 4mph /  6.4km/h 49% 0in /  0.0mm 225 W/m2
15:20 77.4 °F /  25.2 °C 57.2 °F /  14 °C 30in /  1015.2hPa ESE 0.9mph /  1.4km/h 1mph /  1.6km/h 50% 0in /  0.0mm 234 W/m2
15:25 77.4 °F /  25.2 °C 57.2 °F /  14 °C 30in /  1014.9hPa ENE 0.9mph /  1.4km/h 4mph /  6.4km/h 50% 0in /  0.0mm 218 W/m2
15:30 77.5 °F /  25.3 °C 57.4 °F /  14.1 °C 30in /  1014.9hPa Calm   3mph /  4.8km/h 50% 0in /  0.0mm 186 W/m2
15:35 77.5 °F /  25.3 °C 57.4 °F /  14.1 °C 30in /  1014.6hPa ENE 2mph /  3.2km/h 4mph /  6.4km/h 50% 0in /  0.0mm 183 W/m2
15:40 77.5 °F /  25.3 °C 57.4 °F /  14.1 °C 30in /  1014.6hPa ENE 2mph /  3.2km/h 3mph /  4.8km/h 50% 0in /  0.0mm 183 W/m2
15:45 77.5 °F /  25.3 °C 57.4 °F /  14.1 °C 30in /  1014.6hPa ESE 2mph /  3.2km/h 4mph /  6.4km/h 50% 0in /  0.0mm 172 W/m2
15:50 77.5 °F /  25.3 °C 57.4 °F /  14.1 °C 30in /  1014.6hPa ENE 2mph /  3.2km/h 3mph /  4.8km/h 50% 0in /  0.0mm 165 W/m2
15:55 77.4 °F /  25.2 °C 57.2 °F /  14 °C 30in /  1014.6hPa ENE 0.9mph /  1.4km/h 2mph /  3.2km/h 50% 0in /  0.0mm 127 W/m2
16:00 77.4 °F /  25.2 °C 57.7 °F /  14.3 °C 30in /  1014.2hPa Calm   2mph /  3.2km/h 51% 0in /  0.0mm 125 W/m2
16:05 77.2 °F /  25.1 °C 57.7 °F /  14.3 °C 30in /  1014.2hPa Calm   1mph /  1.6km/h 51% 0in /  0.0mm 132 W/m2
16:10 77.2 °F /  25.1 °C 58.6 °F /  14.8 °C 30in /  1014.2hPa ESE 0.9mph /  1.4km/h 1mph /  1.6km/h 53% 0in /  0.0mm 135 W/m2
16:15 77.2 °F /  25.1 °C 57.7 °F /  14.3 °C 30in /  1014.2hPa ESE 0.9mph /  1.4km/h 1mph /  1.6km/h 51% 0in /  0.0mm 134 W/m2
16:21 77.4 °F /  25.2 °C 57.7 °F /  14.3 °C 30in /  1014.2hPa ESE 2mph /  3.2km/h 4mph /  6.4km/h 51% 0in /  0.0mm 127 W/m2
16:26 77.4 °F /  25.2 °C 57.7 °F /  14.3 °C 30in /  1014.2hPa East 2mph /  3.2km/h 2mph /  3.2km/h 51% 0in /  0.0mm 125 W/m2
16:31 77.4 °F /  25.2 °C 58.3 °F /  14.6 °C 29.9in /  1013.9hPa ESE 0.9mph /  1.4km/h 1mph /  1.6km/h 52% 0in /  0.0mm 127 W/m2
16:36 77.4 °F /  25.2 °C 58.3 °F /  14.6 °C 29.9in /  1013.9hPa Calm     52% 0in /  0.0mm 116 W/m2
16:41 77.5 °F /  25.3 °C 57.9 °F /  14.4 °C 29.9in /  1013.9hPa NE 0.9mph /  1.4km/h 3mph /  4.8km/h 51% 0in /  0.0mm 104 W/m2
16:46 77.5 °F /  25.3 °C 59 °F /  15 °C 29.9in /  1013.9hPa NE 0.9mph /  1.4km/h 1mph /  1.6km/h 53% 0in /  0.0mm 104 W/m2
16:51 77.7 °F /  25.4 °C 58.6 °F /  14.8 °C 29.9in /  1013.9hPa ENE 0.9mph /  1.4km/h 3mph /  4.8km/h 52% 0in /  0.0mm 105 W/m2
16:56 77.5 °F /  25.3 °C 58.5 °F /  14.7 °C 29.9in /  1013.5hPa ENE 0.9mph /  1.4km/h 2mph /  3.2km/h 52% 0in /  0.0mm 105 W/m2
17:01 77.5 °F /  25.3 °C 57.9 °F /  14.4 °C 29.9in /  1013.5hPa Calm   1mph /  1.6km/h 51% 0in /  0.0mm 95 W/m2
17:06 77.5 °F /  25.3 °C 58.5 °F /  14.7 °C 29.9in /  1013.5hPa ENE 0.9mph /  1.4km/h 1mph /  1.6km/h 52% 0in /  0.0mm 86 W/m2
17:11 77.4 °F /  25.2 °C 57.7 °F /  14.3 °C 29.9in /  1013.5hPa East 0.9mph /  1.4km/h 2mph /  3.2km/h 51% 0in /  0.0mm 84 W/m2
17:16 77.5 °F /  25.3 °C 58.5 °F /  14.7 °C 29.9in /  1013.5hPa SSE 2.9mph /  4.7km/h 4mph /  6.4km/h 52% 0in /  0.0mm 88 W/m2
17:21 77.4 °F /  25.2 °C 58.3 °F /  14.6 °C 29.9in /  1013.5hPa Calm   4mph /  6.4km/h 52% 0in /  0.0mm 91 W/m2
17:26 77.5 °F /  25.3 °C 59 °F /  15 °C 29.9in /  1013.5hPa Calm     53% 0in /  0.0mm 91 W/m2
17:31 77.4 °F /  25.2 °C 58.8 °F /  14.9 °C 29.9in /  1013.5hPa Calm   4mph /  6.4km/h 53% 0in /  0.0mm 95 W/m2
17:36 77.4 °F /  25.2 °C 58.8 °F /  14.9 °C 29.9in /  1013.5hPa East 0.9mph /  1.4km/h 2mph /  3.2km/h 53% 0in /  0.0mm 88 W/m2
17:41 77.4 °F /  25.2 °C 58.8 °F /  14.9 °C 29.9in /  1013.5hPa Calm   3mph /  4.8km/h 53% 0in /  0.0mm 84 W/m2
17:46 77.4 °F /  25.2 °C 59.9 °F /  15.5 °C 29.9in /  1013.5hPa Calm   1mph /  1.6km/h 55% 0in /  0.0mm 83 W/m2
17:51 77.4 °F /  25.2 °C 59.4 °F /  15.2 °C 29.9in /  1013.5hPa Calm   2mph /  3.2km/h 54% 0in /  0.0mm 86 W/m2
17:56 77.2 °F /  25.1 °C 59.7 °F /  15.4 °C 29.9in /  1013.5hPa Calm   1mph /  1.6km/h 55% 0in /  0.0mm 81 W/m2
18:01 77.2 °F /  25.1 °C 59.7 °F /  15.4 °C 29.9in /  1013.5hPa Calm   2mph /  3.2km/h 55% 0in /  0.0mm 77 W/m2
18:06 77 °F /  25 °C 59.5 °F /  15.3 °C 29.9in /  1013.5hPa Calm   1mph /  1.6km/h 55% 0in /  0.0mm 74 W/m2
18:11 77 °F /  25 °C 60.1 °F /  15.6 °C 29.9in /  1013.5hPa Calm     56% 0in /  0.0mm 69 W/m2
18:16 77 °F /  25 °C 60.1 °F /  15.6 °C 29.9in /  1013.2hPa Calm     56% 0in /  0.0mm 67 W/m2
18:21 76.8 °F /  24.9 °C 59.9 °F /  15.5 °C 29.9in /  1013.2hPa Calm     56% 0in /  0.0mm 63 W/m2
18:26 76.6 °F /  24.8 °C 60.3 °F /  15.7 °C 29.9in /  1013.5hPa Calm     57% 0in /  0.0mm 54 W/m2
18:31 76.6 °F /  24.8 °C 60.3 °F /  15.7 °C 29.9in /  1013.2hPa Calm     57% 0in /  0.0mm 49 W/m2
18:36 76.5 °F /  24.7 °C 59.5 °F /  15.3 °C 29.9in /  1013.2hPa Calm     56% 0in /  0.0mm 70 W/m2
18:41 76.5 °F /  24.7 °C 60.1 °F /  15.6 °C 29.9in /  1013.2hPa Calm     57% 0in /  0.0mm 44 W/m2
18:46 76.3 °F /  24.6 °C 59.9 °F /  15.5 °C 29.9in /  1013.2hPa Calm     57% 0in /  0.0mm 44 W/m2
18:51 75.9 °F /  24.4 °C 60.1 °F /  15.6 °C 29.9in /  1013.2hPa Calm     58% 0in /  0.0mm 44 W/m2
18:56 75.7 °F /  24.3 °C 59.9 °F /  15.5 °C 29.9in /  1013.2hPa Calm     58% 0in /  0.0mm 40 W/m2
19:01 75.6 °F /  24.2 °C 59.7 °F /  15.4 °C 29.9in /  1013.2hPa Calm   1mph /  1.6km/h 58% 0in /  0.0mm 37 W/m2
19:06 75.4 °F /  24.1 °C 60.1 °F /  15.6 °C 29.9in /  1013.2hPa Calm     59% 0in /  0.0mm 30 W/m2
19:11 75 °F /  23.9 °C 59.7 °F /  15.4 °C 29.9in /  1013.2hPa Calm   1mph /  1.6km/h 59% 0in /  0.0mm 25 W/m2
19:16 74.7 °F /  23.7 °C 59.4 °F /  15.2 °C 29.9in /  1013.2hPa Calm     59% 0in /  0.0mm 19 W/m2
19:21 74.5 °F /  23.6 °C 59.2 °F /  15.1 °C 29.9in /  1013.2hPa Calm     59% 0in /  0.0mm 16 W/m2
19:26 74.1 °F /  23.4 °C 59.4 °F /  15.2 °C 29.9in /  1013.2hPa Calm     60% 0in /  0.0mm 12 W/m2
19:31 73.9 °F /  23.3 °C 59.2 °F /  15.1 °C 29.9in /  1013.2hPa Calm     60% 0in /  0.0mm 5 W/m2
19:36 73.6 °F /  23.1 °C 58.8 °F /  14.9 °C 29.9in /  1013.2hPa Calm     60% 0in /  0.0mm 0 W/m2
19:41 73.2 °F /  22.9 °C 59 °F /  15 °C 29.9in /  1013.2hPa Calm     61% 0in /  0.0mm 0 W/m2
19:46 72.9 °F /  22.7 °C 58.6 °F /  14.8 °C 29.9in /  1013.2hPa SE 0.9mph /  1.4km/h 1mph /  1.6km/h 61% 0in /  0.0mm 0 W/m2
19:51 72.7 °F /  22.6 °C 58.5 °F /  14.7 °C 29.9in /  1013.2hPa Calm   1mph /  1.6km/h 61% 0in /  0.0mm 0 W/m2
19:56 72.3 °F /  22.4 °C 58.6 °F /  14.8 °C 29.9in /  1013.2hPa Calm   1mph /  1.6km/h 62% 0in /  0.0mm 0 W/m2
20:01 72 °F /  22.2 °C 58.3 °F /  14.6 °C 29.9in /  1013.2hPa Calm     62% 0in /  0.0mm 0 W/m2
20:06 71.8 °F /  22.1 °C 58.5 °F /  14.7 °C 29.9in /  1013.2hPa Calm   1mph /  1.6km/h 63% 0in /  0.0mm 0 W/m2
20:11 71.4 °F /  21.9 °C 58.1 °F /  14.5 °C 29.9in /  1013.2hPa Calm     63% 0in /  0.0mm 0 W/m2
20:16 71.2 °F /  21.8 °C 58.5 °F /  14.7 °C 29.9in /  1013.2hPa Calm   1mph /  1.6km/h 64% 0in /  0.0mm 0 W/m2
20:22 70.9 °F /  21.6 °C 58.1 °F /  14.5 °C 29.9in /  1013.2hPa Calm     64% 0in /  0.0mm 0 W/m2
20:27 70.5 °F /  21.4 °C 58.1 °F /  14.5 °C 29.9in /  1013.2hPa Calm   1mph /  1.6km/h 65% 0in /  0.0mm 0 W/m2
20:32 70.3 °F /  21.3 °C 58.5 °F /  14.7 °C 29.9in /  1013.2hPa Calm     66% 0in /  0.0mm 0 W/m2
20:37 70.2 °F /  21.2 °C 58.3 °F /  14.6 °C 29.9in /  1013.2hPa Calm     66% 0in /  0.0mm 0 W/m2
20:42 69.8 °F /  21 °C 58.3 °F /  14.6 °C 29.9in /  1013.2hPa Calm     67% 0in /  0.0mm 0 W/m2
20:47 69.4 °F /  20.8 °C 57.9 °F /  14.4 °C 29.9in /  1013.2hPa Calm     67% 0in /  0.0mm 0 W/m2
20:52 69.3 °F /  20.7 °C 57.9 °F /  14.4 °C 29.9in /  1013.2hPa Calm     67% 0in /  0.0mm 0 W/m2
20:57 69.1 °F /  20.6 °C 58.1 °F /  14.5 °C 29.9in /  1013.5hPa Calm     68% 0in /  0.0mm 0 W/m2
21:02 68.7 °F /  20.4 °C 57.7 °F /  14.3 °C 29.9in /  1013.5hPa Calm     68% 0in /  0.0mm 0 W/m2
21:07 68.5 °F /  20.3 °C 57.6 °F /  14.2 °C 29.9in /  1013.5hPa Calm     68% 0in /  0.0mm 0 W/m2
21:12 68.4 °F /  20.2 °C 57.7 °F /  14.3 °C 29.9in /  1013.9hPa SE 0.9mph /  1.4km/h 2mph /  3.2km/h 69% 0in /  0.0mm 0 W/m2
21:17 68.4 °F /  20.2 °C 57.7 °F /  14.3 °C 29.9in /  1013.9hPa SE 0.9mph /  1.4km/h 1mph /  1.6km/h 69% 0in /  0.0mm 0 W/m2
21:22 68.4 °F /  20.2 °C 57.7 °F /  14.3 °C 29.9in /  1013.9hPa Calm     69% 0in /  0.0mm 0 W/m2
21:27 68.4 °F /  20.2 °C 57.7 °F /  14.3 °C 30in /  1014.2hPa Calm   2mph /  3.2km/h 69% 0in /  0.0mm 0 W/m2
21:32 68.2 °F /  20.1 °C 58.1 °F /  14.5 °C 30in /  1014.2hPa Calm   1mph /  1.6km/h 70% 0in /  0.0mm 0 W/m2
21:37 68 °F /  20 °C 57.9 °F /  14.4 °C 30in /  1014.2hPa Calm   2mph /  3.2km/h 70% 0in /  0.0mm 0 W/m2
21:42 67.6 °F /  19.8 °C 57.6 °F /  14.2 °C 30in /  1014.2hPa SSW 0.9mph /  1.4km/h 1mph /  1.6km/h 70% 0in /  0.0mm 0 W/m2
21:47 67.5 °F /  19.7 °C 57.7 °F /  14.3 °C 30in /  1014.2hPa Calm     71% 0in /  0.0mm 0 W/m2
21:52 67.3 °F /  19.6 °C 57.6 °F /  14.2 °C 30in /  1014.2hPa Calm     71% 0in /  0.0mm 0 W/m2
21:57 66.9 °F /  19.4 °C 57.6 °F /  14.2 °C 30in /  1014.2hPa Calm     72% 0in /  0.0mm 0 W/m2
22:02 66.7 °F /  19.3 °C 57.4 °F /  14.1 °C 30in /  1014.2hPa Calm     72% 0in /  0.0mm 0 W/m2
22:07 66.6 °F /  19.2 °C 57.6 °F /  14.2 °C 30in /  1014.2hPa Calm   1mph /  1.6km/h 73% 0in /  0.0mm 0 W/m2
22:12 66.4 °F /  19.1 °C 57.9 °F /  14.4 °C 30in /  1014.6hPa Calm   1mph /  1.6km/h 74% 0in /  0.0mm 0 W/m2
22:17 66 °F /  18.9 °C 57.6 °F /  14.2 °C 30in /  1014.6hPa Calm     74% 0in /  0.0mm 0 W/m2
22:22 65.8 °F /  18.8 °C 57.4 °F /  14.1 °C 30in /  1014.6hPa Calm     74% 0in /  0.0mm 0 W/m2
22:27 65.7 °F /  18.7 °C 57.6 °F /  14.2 °C 30in /  1014.6hPa Calm     75% 0in /  0.0mm 0 W/m2
22:32 65.5 °F /  18.6 °C 57.4 °F /  14.1 °C 30in /  1014.2hPa Calm     75% 0in /  0.0mm 0 W/m2
22:37 65.3 °F /  18.5 °C 57.2 °F /  14 °C 30in /  1014.2hPa Calm     75% 0in /  0.0mm 0 W/m2
22:42 65.1 °F /  18.4 °C 57 °F /  13.9 °C 30in /  1014.2hPa Calm     75% 0in /  0.0mm 0 W/m2
22:47 64.9 °F /  18.3 °C 57.2 °F /  14 °C 30in /  1014.2hPa Calm     76% 0in /  0.0mm 0 W/m2
22:52 64.8 °F /  18.2 °C 57 °F /  13.9 °C 30in /  1014.6hPa Calm     76% 0in /  0.0mm 0 W/m2
22:57 64.6 °F /  18.1 °C 56.8 °F /  13.8 °C 30in /  1014.6hPa Calm     76% 0in /  0.0mm 0 W/m2
23:02 64.6 °F /  18.1 °C 56.5 °F /  13.6 °C 30in /  1014.6hPa Calm     75% 0in /  0.0mm 0 W/m2
23:07 64.4 °F /  18 °C 56.3 °F /  13.5 °C 30in /  1014.6hPa Calm     75% 0in /  0.0mm 0 W/m2
23:12 64.2 °F /  17.9 °C 56.1 °F /  13.4 °C 30in /  1014.6hPa Calm     75% 0in /  0.0mm 0 W/m2
23:17 64.2 °F /  17.9 °C 56.1 °F /  13.4 °C 30in /  1014.6hPa Calm     75% 0in /  0.0mm 0 W/m2
23:22 64.2 °F /  17.9 °C 55.8 °F /  13.2 °C 30in /  1014.6hPa Calm     74% 0in /  0.0mm 0 W/m2
23:27 64 °F /  17.8 °C 55.6 °F /  13.1 °C 30in /  1014.6hPa Calm     74% 0in /  0.0mm 0 W/m2
23:32 63.9 °F /  17.7 °C 55.4 °F /  13 °C 30in /  1014.6hPa Calm     74% 0in /  0.0mm 0 W/m2
23:37 63.9 °F /  17.7 °C 55.4 °F /  13 °C 30in /  1014.6hPa Calm     74% 0in /  0.0mm 0 W/m2
23:42 63.7 °F /  17.6 °C 55.2 °F /  12.9 °C 30in /  1014.6hPa Calm     74% 0in /  0.0mm 0 W/m2
23:47 63.7 °F /  17.6 °C 55.2 °F /  12.9 °C 30in /  1014.6hPa Calm     74% 0in /  0.0mm 0 W/m2
23:52 63.5 °F /  17.5 °C 54.7 °F /  12.6 °C 30in /  1014.6hPa Calm     73% 0in /  0.0mm 0 W/m2
23:57 63.3 °F /  17.4 °C 54.5 °F /  12.5 °C 30in /  1014.6hPa Calm     73% 0in /  0.0mm 0 W/m2
Juneau County Weather
Compliments of Weather Underground - 4 mb